createdAt,value
2023-03-04T00:00:04.917Z,7.47
2023-03-04T00:02:36.813Z,13.95
2023-03-04T00:05:03.673Z,5.65
2023-03-04T00:07:30.271Z,9.05
2023-03-04T00:09:56.723Z,13.27
2023-03-04T00:12:23.360Z,12.45
2023-03-04T00:14:49.879Z,8.43
2023-03-04T00:17:16.363Z,10.38
2023-03-04T00:19:42.814Z,11.90
2023-03-04T00:22:09.891Z,12.65
2023-03-04T00:24:36.379Z,11.98
2023-03-04T00:27:02.871Z,10.40
2023-03-04T00:29:29.551Z,12.73
2023-03-04T00:31:56.337Z,6.88
2023-03-04T00:34:22.961Z,9.98
2023-03-04T00:36:49.610Z,11.25
2023-03-04T00:39:17.223Z,12.60
2023-03-04T00:41:43.714Z,7.28
2023-03-04T00:44:10.265Z,7.22
2023-03-04T00:46:36.802Z,8.70
2023-03-04T00:49:03.268Z,12.27
2023-03-04T00:51:30.156Z,14.65
2023-03-04T00:53:57.772Z,8.93
2023-03-04T00:56:25.785Z,15.23
2023-03-04T00:58:52.335Z,7.88
2023-03-04T01:01:18.762Z,9.23
2023-03-04T01:03:45.320Z,10.75
2023-03-04T01:06:12.475Z,12.52
2023-03-04T01:08:39.199Z,16.25
2023-03-04T01:11:06.615Z,11.50
2023-03-04T01:13:33.174Z,13.10
2023-03-04T01:15:59.747Z,7.57
2023-03-04T01:18:26.326Z,4.47
2023-03-04T01:20:52.767Z,5.38
2023-03-04T01:23:19.283Z,4.60
2023-03-04T01:25:45.821Z,8.68
2023-03-04T01:28:12.389Z,11.40
2023-03-04T01:30:38.973Z,8.55
2023-03-04T01:33:05.446Z,13.23
2023-03-04T01:35:32.002Z,9.55
2023-03-04T01:37:58.919Z,6.82
2023-03-04T01:40:25.453Z,8.23
2023-03-04T01:42:52.038Z,11.35
2023-03-04T01:45:20.094Z,6.60
2023-03-04T01:47:49.064Z,10.27
2023-03-04T01:50:32.486Z,12.32
2023-03-04T01:52:59.364Z,7.50
2023-03-04T01:55:27.214Z,6.68
2023-03-04T01:57:55.666Z,10.95
2023-03-04T02:00:33.811Z,9.00
2023-03-04T02:03:07.691Z,7.07
2023-03-04T02:05:37.254Z,5.55
2023-03-04T02:08:04.991Z,3.95
2023-03-04T02:10:32.718Z,8.90
2023-03-04T02:13:00.583Z,7.65
2023-03-04T02:15:28.136Z,13.65
2023-03-04T02:17:54.693Z,3.72
2023-03-04T02:20:30.158Z,11.02
2023-03-04T02:23:07.986Z,8.75
2023-03-04T02:26:20.898Z,11.40
2023-03-04T02:28:52.622Z,15.85
2023-03-04T02:31:31.585Z,6.85
2023-03-04T02:34:01.596Z,7.03
2023-03-04T02:36:29.382Z,7.05
2023-03-04T02:39:03.144Z,13.73
2023-03-04T02:41:30.476Z,9.57
2023-03-04T02:43:58.603Z,6.25
2023-03-04T02:46:26.728Z,7.43
2023-03-04T02:48:53.383Z,5.65
2023-03-04T02:51:20.121Z,6.60
2023-03-04T02:53:47.807Z,7.50
2023-03-04T02:56:14.520Z,6.53
2023-03-04T02:58:41.161Z,15.60
2023-03-04T03:01:09.841Z,9.02
2023-03-04T03:03:36.583Z,9.75
2023-03-04T03:06:03.910Z,4.03
2023-03-04T03:08:30.433Z,4.57
2023-03-04T03:10:56.893Z,10.95
2023-03-04T03:13:25.254Z,8.50
2023-03-04T03:15:52.471Z,7.93
2023-03-04T03:18:19.125Z,7.93
2023-03-04T03:20:46.294Z,11.45
2023-03-04T03:23:13.375Z,3.83
2023-03-04T03:25:39.903Z,7.90
2023-03-04T03:28:06.539Z,7.80
2023-03-04T03:30:33.092Z,8.90
2023-03-04T03:33:01.938Z,8.68
2023-03-04T03:35:28.847Z,5.82
2023-03-04T03:37:56.209Z,12.20
2023-03-04T03:40:22.714Z,9.63
2023-03-04T03:42:49.186Z,3.70
2023-03-04T03:45:15.737Z,3.10
2023-03-04T03:47:42.219Z,2.65
2023-03-04T03:50:09.476Z,11.55
2023-03-04T03:52:35.995Z,9.48
2023-03-04T03:55:02.626Z,7.80
2023-03-04T03:57:29.954Z,11.07
2023-03-04T03:59:56.560Z,12.20
2023-03-04T04:02:23.351Z,4.85
2023-03-04T04:04:50.028Z,6.25
2023-03-04T04:07:16.589Z,5.60
2023-03-04T04:09:43.202Z,7.25
2023-03-04T04:12:13.177Z,6.78
2023-03-04T04:14:39.683Z,4.53
2023-03-04T04:17:06.268Z,8.15
2023-03-04T04:19:32.786Z,4.18
2023-03-04T04:21:59.271Z,10.90
2023-03-04T04:24:25.802Z,6.13
2023-03-04T04:26:52.267Z,12.02
2023-03-04T04:29:18.889Z,6.78
2023-03-04T04:31:45.591Z,5.65
2023-03-04T04:34:12.093Z,6.78
2023-03-04T04:36:38.540Z,5.95
2023-03-04T04:39:04.982Z,6.40
2023-03-04T04:41:37.814Z,5.53
2023-03-04T04:44:05.757Z,7.00
2023-03-04T04:46:32.705Z,6.90
2023-03-04T04:48:59.266Z,8.75
2023-03-04T04:51:25.973Z,6.13
2023-03-04T04:53:54.647Z,5.57
2023-03-04T04:56:26.138Z,9.27
2023-03-04T04:58:54.001Z,5.47
2023-03-04T05:01:21.011Z,4.05
2023-03-04T05:03:49.629Z,8.95
2023-03-04T05:06:16.525Z,5.15
2023-03-04T05:08:43.161Z,6.20
2023-03-04T05:11:09.710Z,7.65
2023-03-04T05:13:36.166Z,11.70
2023-03-04T05:16:02.996Z,10.15
2023-03-04T05:18:30.013Z,8.05
2023-03-04T05:20:59.104Z,7.40
2023-03-04T05:23:26.842Z,8.18
2023-03-04T05:25:53.562Z,3.25
2023-03-04T05:28:20.515Z,3.35
2023-03-04T05:30:47.351Z,5.15
2023-03-04T05:33:15.916Z,6.75
2023-03-04T05:35:43.173Z,2.60
2023-03-04T05:38:12.955Z,3.15
2023-03-04T05:40:39.962Z,6.80
2023-03-04T05:43:06.553Z,7.90
2023-03-04T05:45:33.810Z,9.80
2023-03-04T05:48:00.466Z,5.95
2023-03-04T05:50:26.966Z,10.13
2023-03-04T05:52:54.737Z,8.43
2023-03-04T05:55:21.300Z,5.30
2023-03-04T05:57:48.254Z,6.93
2023-03-04T06:00:16.118Z,1.85
2023-03-04T06:02:43.941Z,4.75
2023-03-04T06:05:12.962Z,8.35
2023-03-04T06:07:39.601Z,7.32
2023-03-04T06:10:07.142Z,11.35
2023-03-04T06:12:33.658Z,3.38
2023-03-04T06:15:00.124Z,8.23
2023-03-04T06:17:26.642Z,5.95
2023-03-04T06:19:53.059Z,3.42
2023-03-04T06:22:19.542Z,4.93
2023-03-04T06:24:46.105Z,9.38
2023-03-04T06:27:13.486Z,6.07
2023-03-04T06:29:40.010Z,9.73
2023-03-04T06:32:06.452Z,4.38
2023-03-04T06:34:33.744Z,5.30
2023-03-04T06:37:00.491Z,6.20
2023-03-04T06:39:26.953Z,1.42
2023-03-04T06:41:53.472Z,8.80
2023-03-04T06:44:19.980Z,4.13
2023-03-04T06:46:46.410Z,7.63
2023-03-04T06:49:12.864Z,8.55
2023-03-04T06:51:39.270Z,9.82
2023-03-04T06:54:05.771Z,2.88
2023-03-04T06:56:32.291Z,8.20
2023-03-04T06:58:58.813Z,9.90
2023-03-04T07:01:27.787Z,5.38
2023-03-04T07:03:55.279Z,6.38
2023-03-04T07:06:25.057Z,4.15
2023-03-04T07:08:52.313Z,5.05
2023-03-04T07:11:19.461Z,7.18
2023-03-04T07:13:46.491Z,4.57
2023-03-04T07:16:17.849Z,6.25
2023-03-04T07:18:45.098Z,4.72
2023-03-04T07:21:13.295Z,9.20
2023-03-04T07:23:39.946Z,8.45
2023-03-04T07:26:07.428Z,4.80
2023-03-04T07:28:34.114Z,6.80
2023-03-04T07:31:13.106Z,9.25
2023-03-04T07:33:39.770Z,6.30
2023-03-04T07:36:06.337Z,3.15
2023-03-04T07:38:33.397Z,3.22
2023-03-04T07:41:00.516Z,10.07
2023-03-04T07:43:27.136Z,11.25
2023-03-04T07:45:59.410Z,10.43
2023-03-04T07:48:26.195Z,3.80
2023-03-04T07:51:03.553Z,2.75
2023-03-04T07:53:30.894Z,3.25
2023-03-04T07:55:57.327Z,4.63
2023-03-04T07:58:23.991Z,3.95
2023-03-04T08:00:50.501Z,1.85
2023-03-04T08:03:17.145Z,7.63
2023-03-04T08:05:43.602Z,4.80
2023-03-04T08:08:13.421Z,3.00
2023-03-04T08:10:39.923Z,5.13
2023-03-04T08:13:07.484Z,5.45
2023-03-04T08:15:35.191Z,10.25
2023-03-04T08:18:02.227Z,3.20
2023-03-04T08:20:28.720Z,3.88
2023-03-04T08:22:55.171Z,4.97
2023-03-04T08:25:21.641Z,5.50
2023-03-04T08:27:48.384Z,5.28
2023-03-04T08:30:15.224Z,2.97
2023-03-04T08:32:41.851Z,5.88
2023-03-04T08:35:08.548Z,1.13
2023-03-04T08:37:35.049Z,1.63
2023-03-04T08:40:01.547Z,2.60
2023-03-04T08:42:28.410Z,6.18
2023-03-04T08:44:54.878Z,3.13
2023-03-04T08:47:21.360Z,2.47
2023-03-04T08:49:48.298Z,4.88
2023-03-04T08:52:14.799Z,6.20
2023-03-04T08:54:41.269Z,3.45
2023-03-04T08:57:07.804Z,1.58
2023-03-04T08:59:36.010Z,9.60
2023-03-04T09:02:04.346Z,7.07
2023-03-04T09:04:30.888Z,2.95
2023-03-04T09:06:57.410Z,2.88
2023-03-04T09:09:24.052Z,4.55
2023-03-04T09:11:50.670Z,2.85
2023-03-04T09:14:17.119Z,1.80
2023-03-04T09:16:43.575Z,1.52
2023-03-04T09:19:10.007Z,1.20
2023-03-04T09:21:36.734Z,4.90
2023-03-04T09:24:03.494Z,1.65
2023-03-04T09:26:30.416Z,1.95
2023-03-04T09:28:59.189Z,6.18
2023-03-04T09:31:28.210Z,3.20
2023-03-04T09:33:56.043Z,4.75
2023-03-04T09:36:23.026Z,1.90
2023-03-04T09:38:49.948Z,1.33
2023-03-04T09:41:20.774Z,2.67
2023-03-04T09:43:50.014Z,2.47
2023-03-04T09:46:25.858Z,2.28
2023-03-04T09:48:55.139Z,2.50
2023-03-04T09:51:23.438Z,1.05
2023-03-04T09:54:06.121Z,1.98
2023-03-04T09:56:36.653Z,0.50
2023-03-04T09:59:38.703Z,1.95
2023-03-04T10:02:20.602Z,1.05
2023-03-04T10:07:24.554Z,2.22
2023-03-04T10:10:00.630Z,1.60
2023-03-04T10:12:31.334Z,3.75
2023-03-04T10:15:03.337Z,1.25
2023-03-04T10:17:39.972Z,5.80
2023-03-04T10:20:09.856Z,2.63
2023-03-04T10:22:42.184Z,4.25
2023-03-04T10:25:16.105Z,2.17
2023-03-04T10:27:48.164Z,3.38
2023-03-04T10:30:30.331Z,2.47
2023-03-04T10:32:57.118Z,5.20
2023-03-04T10:35:28.194Z,3.35
2023-03-04T10:37:54.668Z,0.80
2023-03-04T10:40:24.126Z,2.97
2023-03-04T10:42:51.214Z,2.08
2023-03-04T10:45:31.052Z,8.30
2023-03-04T10:47:58.681Z,6.05
2023-03-04T10:50:28.095Z,2.35
2023-03-04T10:52:56.740Z,1.65
2023-03-04T10:55:42.324Z,2.75
2023-03-04T10:58:15.354Z,3.55
2023-03-04T11:00:42.215Z,3.22
2023-03-04T11:03:31.536Z,5.00
2023-03-04T11:06:06.579Z,1.27
2023-03-04T11:08:33.038Z,1.25
2023-03-04T11:10:59.527Z,1.00
2023-03-04T11:13:26.843Z,1.95
2023-03-04T11:15:58.854Z,1.33
2023-03-04T11:18:43.455Z,4.40
2023-03-04T11:21:17.584Z,3.20
2023-03-04T11:24:01.805Z,1.65
2023-03-04T11:26:39.183Z,1.98
2023-03-04T11:29:08.479Z,1.40
2023-03-04T11:31:49.019Z,1.60
2023-03-04T11:34:37.507Z,0.70
2023-03-04T11:37:30.222Z,2.78
2023-03-04T11:40:12.152Z,3.60
2023-03-04T11:45:28.123Z,6.38
2023-03-04T11:48:17.737Z,2.75
2023-03-04T11:50:51.260Z,6.55
2023-03-04T11:53:30.397Z,2.75
2023-03-04T11:56:12.533Z,6.53
2023-03-04T11:59:23.458Z,5.32
2023-03-04T12:02:11.008Z,2.92
2023-03-04T12:04:52.043Z,4.57
2023-03-04T12:07:55.604Z,7.27
2023-03-04T12:10:49.413Z,4.05
2023-03-04T12:13:39.157Z,5.30
2023-03-04T12:16:29.474Z,6.65
2023-03-04T12:19:17.380Z,3.20
2023-03-04T12:22:18.083Z,8.85
2023-03-04T12:24:59.415Z,7.28
2023-03-04T12:28:02.649Z,11.00
2023-03-04T12:30:48.592Z,12.80
2023-03-04T12:33:52.630Z,10.95
2023-03-04T12:36:43.068Z,7.22
2023-03-04T12:39:32.637Z,5.00
2023-03-04T12:42:47.478Z,5.22
2023-03-04T12:45:25.471Z,3.72
2023-03-04T12:48:19.311Z,6.20
2023-03-04T12:51:05.756Z,8.07
2023-03-04T12:53:44.462Z,5.47
2023-03-04T12:56:28.985Z,8.60
2023-03-04T12:58:56.794Z,7.00
2023-03-04T13:01:36.879Z,4.68
2023-03-04T13:04:11.826Z,8.95
2023-03-04T13:07:00.290Z,8.15
2023-03-04T13:09:32.172Z,11.40
2023-03-04T13:12:13.506Z,11.45
2023-03-04T13:14:40.073Z,10.95
2023-03-04T13:17:49.098Z,8.38
2023-03-04T13:20:33.131Z,9.88
2023-03-04T13:23:01.611Z,11.25
2023-03-04T13:25:39.128Z,7.63
2023-03-04T13:28:09.758Z,7.28
2023-03-04T13:30:37.841Z,4.95
2023-03-04T13:33:10.521Z,9.73
2023-03-04T13:35:49.576Z,6.32
2023-03-04T13:38:31.635Z,6.80
2023-03-04T13:43:44.570Z,8.00
2023-03-04T13:46:20.219Z,6.32
2023-03-04T13:48:49.542Z,9.10
2023-03-04T13:51:44.117Z,5.07
2023-03-04T13:54:15.891Z,4.93
2023-03-04T13:56:46.720Z,6.60
2023-03-04T13:59:49.028Z,12.40
2023-03-04T14:02:20.053Z,12.63
2023-03-04T14:04:57.353Z,5.63
2023-03-04T14:07:29.994Z,7.03
2023-03-04T14:10:11.644Z,2.42
2023-03-04T14:12:45.175Z,5.28
2023-03-04T14:15:14.445Z,5.03
2023-03-04T14:17:46.232Z,3.10
2023-03-04T14:22:50.505Z,6.00
2023-03-04T14:25:29.123Z,3.05
2023-03-04T14:28:12.038Z,5.35
2023-03-04T14:30:43.312Z,3.47
2023-03-04T14:35:48.090Z,2.80
2023-03-04T14:38:23.435Z,2.97
2023-03-04T14:41:18.549Z,2.88
2023-03-04T14:43:56.405Z,3.35
2023-03-04T14:46:26.647Z,1.45
2023-03-04T14:48:55.394Z,1.60
2023-03-04T14:51:55.160Z,2.10
2023-03-04T14:54:40.390Z,1.02
2023-03-04T14:57:21.101Z,7.47
2023-03-04T14:59:47.759Z,1.92
2023-03-04T15:02:35.534Z,4.25
2023-03-04T15:05:16.785Z,3.20
2023-03-04T15:10:24.211Z,3.70
2023-03-04T15:12:53.712Z,12.52
2023-03-04T15:15:35.865Z,5.00
2023-03-04T15:18:26.369Z,9.57
2023-03-04T15:20:57.942Z,6.05
2023-03-04T15:23:25.470Z,5.05
2023-03-04T15:25:54.838Z,5.75
2023-03-04T15:28:22.330Z,3.55
2023-03-04T15:30:48.989Z,1.55
2023-03-04T15:33:15.575Z,0.70
2023-03-04T15:35:53.516Z,1.73
2023-03-04T15:38:23.764Z,3.92
2023-03-04T15:40:53.294Z,2.08
2023-03-04T15:43:22.966Z,2.15
2023-03-04T15:45:50.811Z,3.45
2023-03-04T15:48:18.839Z,5.85
2023-03-04T15:50:50.730Z,4.53
2023-03-04T15:53:25.445Z,5.50
2023-03-04T15:55:52.057Z,3.40
2023-03-04T15:58:18.932Z,5.05
2023-03-04T16:00:45.419Z,3.08
2023-03-04T16:03:20.133Z,2.10
2023-03-04T16:05:49.362Z,5.22
2023-03-04T16:08:19.380Z,3.03
2023-03-04T16:10:46.319Z,7.75
2023-03-04T16:13:15.221Z,3.13
2023-03-04T16:15:43.258Z,1.95
2023-03-04T16:18:11.790Z,2.42
2023-03-04T16:20:40.323Z,3.78
2023-03-04T16:23:12.624Z,2.15
2023-03-04T16:25:39.149Z,6.38
2023-03-04T16:28:06.656Z,2.92
2023-03-04T16:30:33.371Z,6.82
2023-03-04T16:32:59.839Z,7.32
2023-03-04T16:35:27.782Z,6.80
2023-03-04T16:37:54.681Z,8.90
2023-03-04T16:40:25.798Z,6.50
2023-03-04T16:42:52.427Z,10.40
2023-03-04T16:45:21.824Z,5.88
2023-03-04T16:47:48.493Z,4.85
2023-03-04T16:50:19.968Z,4.20
2023-03-04T16:52:48.717Z,5.90
2023-03-04T16:55:22.294Z,6.35
2023-03-04T16:57:49.530Z,5.25
2023-03-04T17:00:18.603Z,7.13
2023-03-04T17:02:55.643Z,5.97
2023-03-04T17:05:23.792Z,5.93
2023-03-04T17:07:50.292Z,4.63
2023-03-04T17:10:17.580Z,4.43
2023-03-04T17:12:44.301Z,10.50
2023-03-04T17:15:13.917Z,7.20
2023-03-04T17:17:41.969Z,4.22
2023-03-04T17:20:11.731Z,9.07
2023-03-04T17:22:38.661Z,6.93
2023-03-04T17:25:05.644Z,11.10
2023-03-04T17:27:32.384Z,11.15
2023-03-04T17:29:58.859Z,5.22
2023-03-04T17:32:27.362Z,4.05
2023-03-04T17:34:55.599Z,5.40
2023-03-04T17:37:22.172Z,10.88
2023-03-04T17:39:48.661Z,5.82
2023-03-04T17:42:18.277Z,7.55
2023-03-04T17:44:45.493Z,7.78
2023-03-04T17:47:12.369Z,6.57
2023-03-04T17:49:38.927Z,13.52
2023-03-04T17:52:05.843Z,6.50
2023-03-04T17:54:32.450Z,10.18
2023-03-04T17:56:58.997Z,10.18
2023-03-04T17:59:25.492Z,8.10
2023-03-04T18:01:54.189Z,9.82
2023-03-04T18:04:21.455Z,11.18
2023-03-04T18:06:47.994Z,10.20
2023-03-04T18:09:14.706Z,10.57
2023-03-04T18:11:42.234Z,14.95
2023-03-04T18:14:09.462Z,7.22
2023-03-04T18:16:36.015Z,10.55
2023-03-04T18:19:02.911Z,11.88
2023-03-04T18:21:30.116Z,6.35
2023-03-04T18:23:57.550Z,7.20
2023-03-04T18:26:25.241Z,10.63
2023-03-04T18:28:53.297Z,8.82
2023-03-04T18:31:21.471Z,7.47
2023-03-04T18:33:48.163Z,8.23
2023-03-04T18:36:15.070Z,10.25
2023-03-04T18:38:41.985Z,7.63
2023-03-04T18:41:11.645Z,11.07
2023-03-04T18:43:38.314Z,9.88
2023-03-04T18:46:25.138Z,6.88
2023-03-04T18:48:54.886Z,5.60
2023-03-04T18:51:21.398Z,5.65
2023-03-04T18:53:47.910Z,10.75
2023-03-04T18:56:20.802Z,8.93
2023-03-04T18:58:50.278Z,6.30
2023-03-04T19:01:20.166Z,6.45
2023-03-04T19:03:46.984Z,6.40
2023-03-04T19:06:13.644Z,6.47
2023-03-04T19:08:40.129Z,7.95
2023-03-04T19:11:06.566Z,6.22
2023-03-04T19:13:33.771Z,5.00
2023-03-04T19:16:00.452Z,9.68
2023-03-04T19:18:29.055Z,10.02
2023-03-04T19:20:55.564Z,9.82
2023-03-04T19:23:23.015Z,9.20
2023-03-04T19:25:49.453Z,11.95
2023-03-04T19:28:15.907Z,4.22
2023-03-04T19:30:42.471Z,10.52
2023-03-04T19:33:10.216Z,8.45
2023-03-04T19:35:42.106Z,8.75
2023-03-04T19:38:09.482Z,7.75
2023-03-04T19:40:40.227Z,10.25
2023-03-04T19:43:07.362Z,16.98
2023-03-04T19:45:34.761Z,9.15
2023-03-04T19:48:02.937Z,8.73
2023-03-04T19:50:29.742Z,9.15
2023-03-04T19:52:56.414Z,7.53
2023-03-04T19:55:22.904Z,12.60
2023-03-04T19:57:49.490Z,8.85
2023-03-04T20:00:16.638Z,14.30
2023-03-04T20:02:44.919Z,7.30
2023-03-04T20:05:12.371Z,8.40
2023-03-04T20:07:39.684Z,6.45
2023-03-04T20:10:06.789Z,6.60
2023-03-04T20:12:34.238Z,11.30
2023-03-04T20:15:00.719Z,7.97
2023-03-04T20:17:27.294Z,8.20
2023-03-04T20:19:53.747Z,10.60
2023-03-04T20:22:20.164Z,6.45
2023-03-04T20:24:46.685Z,12.95
2023-03-04T20:27:15.239Z,9.73
2023-03-04T20:29:45.175Z,15.60
2023-03-04T20:32:12.093Z,21.98
2023-03-04T20:34:38.705Z,7.30
2023-03-04T20:37:05.206Z,15.85
2023-03-04T20:39:31.713Z,17.08
2023-03-04T20:41:58.834Z,12.52
2023-03-04T20:44:25.547Z,13.25
2023-03-04T20:46:52.167Z,14.25
2023-03-04T20:49:24.130Z,8.52
2023-03-04T20:51:52.802Z,4.60
2023-03-04T20:54:20.174Z,12.75
2023-03-04T20:56:48.610Z,9.13
2023-03-04T20:59:18.373Z,7.43
2023-03-04T21:01:47.897Z,10.75
2023-03-04T21:04:14.963Z,5.53
2023-03-04T21:06:42.133Z,11.88
2023-03-04T21:09:13.180Z,12.13
2023-03-04T21:11:40.834Z,22.60
2023-03-04T21:14:13.235Z,21.15
2023-03-04T21:16:39.774Z,9.73
2023-03-04T21:19:06.350Z,17.65
2023-03-04T21:21:32.844Z,12.93
2023-03-04T21:23:59.446Z,22.20
2023-03-04T21:26:26.648Z,32.55
2023-03-04T21:28:54.273Z,19.90
2023-03-04T21:31:28.661Z,10.85
2023-03-04T21:33:56.459Z,17.23
2023-03-04T21:36:23.074Z,22.30
2023-03-04T21:38:49.982Z,17.42
2023-03-04T21:41:18.688Z,18.33
2023-03-04T21:43:45.268Z,21.98
2023-03-04T21:46:13.316Z,28.42
2023-03-04T21:48:43.101Z,18.50
2023-03-04T21:51:13.310Z,19.45
2023-03-04T21:53:39.871Z,17.55
2023-03-04T21:56:06.795Z,40.90
2023-03-04T21:58:35.144Z,24.75
2023-03-04T22:01:09.819Z,12.93
2023-03-04T22:03:36.424Z,14.95
2023-03-04T22:06:08.508Z,9.25
2023-03-04T22:08:35.119Z,29.08
2023-03-04T22:11:06.760Z,10.90
2023-03-04T22:13:33.752Z,13.57
2023-03-04T22:16:01.198Z,10.85
2023-03-04T22:18:27.966Z,11.02
2023-03-04T22:21:01.002Z,16.92
2023-03-04T22:23:27.767Z,10.80
2023-03-04T22:25:55.518Z,19.10
2023-03-04T22:28:25.011Z,11.57
2023-03-04T22:30:51.906Z,12.05
2023-03-04T22:33:18.418Z,19.95
2023-03-04T22:35:44.984Z,14.80
2023-03-04T22:38:11.704Z,10.63
2023-03-04T22:40:38.196Z,6.35
2023-03-04T22:43:04.735Z,15.93
2023-03-04T22:45:32.840Z,5.03
2023-03-04T22:47:59.542Z,7.07
2023-03-04T22:50:26.511Z,9.15
2023-03-04T22:52:53.094Z,8.75
2023-03-04T22:55:21.256Z,8.75
2023-03-04T22:57:48.277Z,7.68
2023-03-04T23:00:24.025Z,7.13
2023-03-04T23:02:51.370Z,12.75
2023-03-04T23:05:20.764Z,6.32
2023-03-04T23:07:48.467Z,11.63
2023-03-04T23:10:21.229Z,10.98
2023-03-04T23:12:47.768Z,13.75
2023-03-04T23:15:16.212Z,7.53
2023-03-04T23:17:43.092Z,9.82
2023-03-04T23:20:15.250Z,4.80
2023-03-04T23:22:41.742Z,5.70
2023-03-04T23:25:08.558Z,8.52
2023-03-04T23:27:35.132Z,15.85
2023-03-04T23:30:01.624Z,14.98
2023-03-04T23:32:28.197Z,7.45
2023-03-04T23:34:56.073Z,6.88
2023-03-04T23:37:23.605Z,11.77
2023-03-04T23:39:50.099Z,5.82
2023-03-04T23:42:16.850Z,11.20
2023-03-04T23:44:43.494Z,6.00
2023-03-04T23:47:10.076Z,6.47
2023-03-04T23:49:36.601Z,11.88
2023-03-04T23:52:03.644Z,5.78
2023-03-04T23:54:31.219Z,5.55
2023-03-04T23:57:00.328Z,12.60
2023-03-04T23:59:28.332Z,7.22
